createdAt,value
2017-10-10T00:00:43.776Z,11.70
2017-10-10T00:03:13.483Z,11.70
2017-10-10T00:05:43.406Z,11.70
2017-10-10T00:08:13.516Z,11.70
2017-10-10T00:10:43.630Z,11.70
2017-10-10T00:13:13.340Z,11.70
2017-10-10T00:15:43.460Z,11.70
2017-10-10T00:18:13.373Z,11.70
2017-10-10T00:20:43.905Z,11.70
2017-10-10T00:23:14.022Z,11.70
2017-10-10T00:25:43.935Z,11.70
2017-10-10T00:28:14.161Z,11.70
2017-10-10T00:30:43.968Z,11.70
2017-10-10T00:33:14.845Z,11.70
2017-10-10T00:35:45.230Z,11.70
2017-10-10T00:38:15.148Z,11.70
2017-10-10T00:40:44.950Z,11.70
2017-10-10T00:43:14.770Z,11.70
2017-10-10T00:45:44.685Z,11.70
2017-10-10T00:48:14.598Z,11.60
2017-10-10T00:50:44.647Z,11.60
2017-10-10T00:53:14.635Z,11.60
2017-10-10T00:55:44.548Z,11.60
2017-10-10T00:58:15.077Z,11.60
2017-10-10T01:00:44.986Z,11.60
2017-10-10T01:03:14.701Z,11.60
2017-10-10T01:05:44.613Z,11.60
2017-10-10T01:08:15.551Z,11.60
2017-10-10T01:10:45.469Z,11.60
2017-10-10T01:13:15.175Z,11.60
2017-10-10T01:15:45.087Z,11.60
2017-10-10T01:18:14.799Z,11.60
2017-10-10T01:20:45.127Z,11.60
2017-10-10T01:23:15.406Z,11.60
2017-10-10T01:25:45.473Z,11.60
2017-10-10T01:28:16.093Z,11.60
2017-10-10T01:30:46.211Z,11.60
2017-10-10T01:33:16.125Z,11.60
2017-10-10T01:35:46.864Z,11.60
2017-10-10T01:38:16.771Z,11.60
2017-10-10T01:40:46.893Z,11.60
2017-10-10T01:43:17.012Z,11.60
2017-10-10T01:45:46.925Z,11.50
2017-10-10T01:48:16.844Z,11.60
2017-10-10T01:50:47.367Z,11.60
2017-10-10T01:53:17.285Z,11.50
2017-10-10T01:55:48.015Z,11.50
2017-10-10T01:58:17.937Z,11.50
2017-10-10T02:00:47.852Z,11.50
2017-10-10T02:03:18.785Z,11.50
2017-10-10T02:05:48.707Z,11.50
2017-10-10T02:08:18.611Z,11.50
2017-10-10T02:10:48.676Z,11.50
2017-10-10T02:13:18.444Z,11.50
2017-10-10T02:15:48.152Z,11.50
2017-10-10T02:18:18.042Z,11.50
2017-10-10T02:20:47.980Z,11.50
2017-10-10T02:23:17.886Z,11.50
2017-10-10T02:25:48.216Z,11.50
2017-10-10T02:28:17.924Z,11.50
2017-10-10T02:30:47.839Z,11.50
2017-10-10T02:33:19.189Z,11.40
2017-10-10T02:35:48.895Z,11.40
2017-10-10T02:38:20.440Z,11.40
2017-10-10T02:40:50.570Z,11.40
2017-10-10T02:43:20.482Z,11.50
2017-10-10T02:45:50.601Z,11.50
2017-10-10T02:48:20.933Z,11.40
2017-10-10T02:50:50.846Z,11.50
2017-10-10T02:53:20.756Z,11.50
2017-10-10T02:55:50.668Z,11.50
2017-10-10T02:58:21.413Z,11.50
2017-10-10T03:00:51.726Z,11.40
2017-10-10T03:03:22.254Z,11.40
2017-10-10T03:05:52.170Z,11.40
2017-10-10T03:08:21.879Z,11.40
2017-10-10T03:10:51.878Z,11.40
2017-10-10T03:13:21.710Z,11.40
2017-10-10T03:15:51.764Z,11.40
2017-10-10T03:18:21.743Z,11.40
2017-10-10T03:20:51.857Z,11.50
2017-10-10T03:23:21.567Z,11.40
2017-10-10T03:25:51.279Z,11.40
2017-10-10T03:28:21.807Z,11.40
2017-10-10T03:30:51.925Z,11.40
2017-10-10T03:33:22.252Z,11.40
2017-10-10T03:35:52.571Z,11.40
2017-10-10T03:38:23.309Z,11.40
2017-10-10T03:40:53.630Z,11.40
2017-10-10T03:43:23.546Z,11.40
2017-10-10T03:45:53.631Z,11.40
2017-10-10T03:48:23.371Z,11.40
2017-10-10T03:50:53.289Z,11.40
2017-10-10T03:53:22.999Z,11.40
2017-10-10T03:55:52.976Z,11.40
2017-10-10T03:58:22.823Z,11.40
2017-10-10T04:00:52.739Z,11.40
2017-10-10T04:03:22.857Z,11.40
2017-10-10T04:05:52.963Z,11.40
2017-10-10T04:08:23.303Z,11.40
2017-10-10T04:10:53.214Z,11.40
2017-10-10T04:13:23.954Z,11.40
2017-10-10T04:15:54.064Z,11.30
2017-10-10T04:18:23.787Z,11.30
2017-10-10T04:20:53.692Z,11.30
2017-10-10T04:23:24.425Z,11.30
2017-10-10T04:25:54.890Z,11.30
2017-10-10T04:28:25.072Z,11.30
2017-10-10T04:30:55.105Z,11.40
2017-10-10T04:33:25.108Z,11.40
2017-10-10T04:35:56.046Z,11.30
2017-10-10T04:38:26.781Z,11.40
2017-10-10T04:40:56.805Z,11.30
2017-10-10T04:43:27.436Z,11.30
2017-10-10T04:45:57.545Z,11.30
2017-10-10T04:48:27.257Z,11.40
2017-10-10T04:50:57.375Z,11.40
2017-10-10T04:53:28.110Z,11.40
2017-10-10T04:55:58.228Z,11.40
2017-10-10T04:58:28.549Z,11.40
2017-10-10T05:00:58.463Z,11.40
2017-10-10T05:03:28.579Z,11.40
2017-10-10T05:05:59.112Z,11.30
2017-10-10T05:08:29.035Z,11.30
2017-10-10T05:10:59.337Z,11.30
2017-10-10T05:13:29.285Z,11.30
2017-10-10T05:15:59.180Z,11.30
2017-10-10T05:18:29.094Z,11.30
2017-10-10T05:20:59.011Z,11.30
2017-10-10T05:23:29.276Z,11.30
2017-10-10T05:25:59.245Z,11.30
2017-10-10T05:28:30.763Z,11.30
2017-10-10T05:31:00.715Z,11.30
2017-10-10T05:33:30.832Z,11.30
2017-10-10T05:36:00.756Z,11.30
2017-10-10T05:38:31.689Z,11.30
2017-10-10T05:41:02.008Z,11.30
2017-10-10T05:43:31.852Z,11.30
2017-10-10T05:46:02.193Z,11.30
2017-10-10T05:48:32.160Z,11.30
2017-10-10T05:51:02.059Z,11.30
2017-10-10T05:53:31.989Z,11.30
2017-10-10T05:56:02.518Z,11.30
2017-10-10T05:58:32.638Z,11.30
2017-10-10T06:01:02.552Z,11.30
2017-10-10T06:03:32.467Z,11.20
2017-10-10T06:06:02.733Z,11.30
2017-10-10T06:08:32.502Z,11.30
2017-10-10T06:11:02.411Z,11.20
2017-10-10T06:13:33.353Z,11.20
2017-10-10T06:16:03.476Z,11.20
2017-10-10T06:18:33.952Z,11.30
2017-10-10T06:21:04.121Z,11.30
2017-10-10T06:23:34.855Z,11.30
2017-10-10T06:26:04.928Z,11.30
2017-10-10T06:28:35.090Z,11.30
2017-10-10T06:31:05.210Z,11.30
2017-10-10T06:33:35.331Z,11.30
2017-10-10T06:36:05.448Z,11.30
2017-10-10T06:38:35.466Z,11.30
2017-10-10T06:41:06.710Z,11.30
2017-10-10T06:43:36.807Z,11.30
2017-10-10T06:46:06.742Z,11.30
2017-10-10T06:48:36.767Z,11.30
2017-10-10T06:51:07.389Z,11.30
2017-10-10T06:53:37.473Z,11.20
2017-10-10T06:56:07.431Z,11.30
2017-10-10T06:58:38.310Z,11.30
2017-10-10T07:01:08.254Z,11.20
2017-10-10T07:03:39.012Z,11.30
2017-10-10T07:06:09.129Z,11.30
2017-10-10T07:08:39.056Z,11.30
2017-10-10T07:11:09.925Z,11.30
2017-10-10T07:13:39.897Z,11.30
2017-10-10T07:16:09.989Z,11.30
2017-10-10T07:18:39.928Z,11.30
2017-10-10T07:21:10.666Z,11.30
2017-10-10T07:24:21.137Z,11.30
2017-10-10T07:26:51.884Z,11.40
2017-10-10T07:29:21.780Z,11.40
2017-10-10T07:31:52.509Z,11.40
2017-10-10T07:34:22.429Z,11.50
2017-10-10T07:36:52.530Z,11.50
2017-10-10T07:39:23.343Z,11.50
2017-10-10T07:41:53.599Z,11.50
2017-10-10T07:44:24.121Z,11.60
2017-10-10T07:46:54.197Z,11.60
2017-10-10T07:49:25.185Z,11.60
2017-10-10T07:51:55.261Z,11.50
2017-10-10T07:54:25.833Z,11.60
2017-10-10T07:56:56.771Z,11.60
2017-10-10T07:59:26.836Z,11.60
2017-10-10T08:01:56.804Z,11.60
2017-10-10T08:04:27.129Z,11.60
2017-10-10T08:06:57.337Z,11.60
2017-10-10T08:09:27.346Z,11.60
2017-10-10T08:11:57.356Z,11.70
2017-10-10T08:14:28.220Z,11.70
2017-10-10T08:16:58.343Z,11.70
2017-10-10T08:19:28.408Z,11.70
2017-10-10T08:21:58.525Z,11.70
2017-10-10T08:24:28.700Z,11.70
2017-10-10T08:26:58.814Z,11.70
2017-10-10T08:29:29.704Z,11.80
2017-10-10T08:31:59.872Z,11.80
2017-10-10T08:34:29.791Z,11.80
2017-10-10T08:37:00.340Z,11.80
2017-10-10T08:39:30.231Z,11.90
2017-10-10T08:42:00.467Z,11.90
2017-10-10T08:44:30.616Z,11.90
2017-10-10T08:47:00.778Z,11.90
2017-10-10T08:49:30.511Z,12.00
2017-10-10T08:52:00.418Z,12.00
2017-10-10T08:54:30.541Z,12.00
2017-10-10T08:57:01.247Z,12.10
2017-10-10T08:59:30.966Z,12.10
2017-10-10T09:02:01.241Z,12.10
2017-10-10T09:04:32.239Z,12.10
2017-10-10T09:07:02.297Z,12.10
2017-10-10T09:09:32.071Z,12.20
2017-10-10T09:12:02.177Z,12.10
2017-10-10T09:14:32.309Z,12.10
2017-10-10T09:17:02.221Z,12.10
2017-10-10T09:19:32.340Z,12.10
2017-10-10T09:22:02.462Z,12.20
2017-10-10T09:24:32.512Z,12.20
2017-10-10T09:27:02.495Z,12.20
2017-10-10T09:29:32.405Z,12.20
2017-10-10T09:32:02.428Z,12.20
2017-10-10T09:34:32.643Z,12.20
2017-10-10T09:37:02.561Z,12.20
2017-10-10T09:39:32.650Z,12.20
2017-10-10T09:42:02.800Z,12.20
2017-10-10T09:44:33.529Z,12.30
2017-10-10T09:47:04.234Z,12.20
2017-10-10T09:49:34.382Z,12.20
2017-10-10T09:52:04.301Z,12.20
2017-10-10T09:54:34.298Z,12.30
2017-10-10T09:57:04.330Z,12.30
2017-10-10T09:59:34.453Z,12.30
2017-10-10T10:02:04.411Z,12.30
2017-10-10T10:04:34.281Z,12.30
2017-10-10T10:07:03.995Z,12.30
2017-10-10T10:09:34.119Z,12.40
2017-10-10T10:12:04.024Z,12.40
2017-10-10T10:14:33.937Z,12.40
2017-10-10T10:17:04.054Z,12.40
2017-10-10T10:19:34.154Z,12.40
2017-10-10T10:22:04.063Z,12.40
2017-10-10T10:24:33.806Z,12.40
2017-10-10T10:27:04.052Z,12.40
2017-10-10T10:29:33.995Z,12.40
2017-10-10T10:32:05.181Z,12.40
2017-10-10T10:34:35.227Z,12.40
2017-10-10T10:37:05.833Z,12.40
2017-10-10T10:39:36.766Z,12.40
2017-10-10T10:42:07.703Z,12.50
2017-10-10T10:44:37.801Z,12.50
2017-10-10T10:47:09.389Z,12.50
2017-10-10T10:49:39.635Z,12.40
2017-10-10T10:52:16.905Z,12.50
2017-10-10T10:54:46.959Z,12.50
2017-10-10T10:57:17.838Z,12.50
2017-10-10T10:59:48.116Z,12.50
2017-10-10T11:02:18.897Z,12.60
2017-10-10T11:04:49.837Z,12.70
2017-10-10T11:07:19.907Z,12.60
2017-10-10T11:09:50.894Z,12.60
2017-10-10T11:12:21.016Z,12.60
2017-10-10T11:14:51.341Z,12.70
2017-10-10T11:17:21.956Z,12.70
2017-10-10T11:19:52.384Z,12.70
2017-10-10T11:22:22.460Z,12.70
2017-10-10T11:24:52.960Z,12.70
2017-10-10T11:27:25.358Z,12.70
2017-10-10T11:29:55.540Z,12.80
2017-10-10T11:32:25.645Z,12.80
2017-10-10T11:34:56.795Z,12.80
2017-10-10T11:37:26.936Z,12.90
2017-10-10T11:39:58.894Z,13.80
2017-10-10T11:42:28.796Z,14.40
2017-10-10T11:44:59.439Z,14.80
2017-10-10T11:47:30.665Z,15.10
2017-10-10T11:50:00.520Z,15.10
2017-10-10T11:52:30.699Z,15.30
2017-10-10T11:55:02.046Z,15.30
2017-10-10T11:57:33.600Z,15.40
2017-10-10T12:00:03.929Z,15.40
2017-10-10T12:02:35.361Z,15.40
2017-10-10T12:05:05.349Z,15.30
2017-10-10T12:07:35.970Z,15.30
2017-10-10T12:10:06.190Z,15.30
2017-10-10T12:12:36.776Z,15.30
2017-10-10T12:15:07.852Z,15.30
2017-10-10T12:17:38.444Z,15.40
2017-10-10T12:20:09.180Z,15.40
2017-10-10T12:22:40.957Z,15.40
2017-10-10T12:25:10.858Z,15.40
2017-10-10T12:27:41.211Z,15.40
2017-10-10T12:30:11.457Z,15.40
2017-10-10T12:32:42.023Z,15.40
2017-10-10T12:35:12.756Z,15.40
2017-10-10T12:37:43.010Z,15.40
2017-10-10T12:40:13.152Z,15.40
2017-10-10T12:42:43.325Z,15.40
2017-10-10T12:45:13.238Z,15.50
2017-10-10T12:47:44.135Z,15.50
2017-10-10T12:50:14.304Z,15.50
2017-10-10T12:52:44.822Z,15.50
2017-10-10T12:55:16.382Z,15.50
2017-10-10T12:57:49.364Z,15.50
2017-10-10T13:00:19.419Z,15.50
2017-10-10T13:02:49.726Z,15.40
2017-10-10T13:05:20.681Z,15.40
2017-10-10T13:07:50.832Z,15.40
2017-10-10T13:10:20.769Z,15.40
2017-10-10T13:12:51.038Z,15.40
2017-10-10T13:15:21.189Z,15.30
2017-10-10T13:17:51.751Z,15.30
2017-10-10T13:20:21.870Z,15.20
2017-10-10T13:22:51.576Z,15.20
2017-10-10T13:25:22.102Z,15.10
2017-10-10T13:27:52.021Z,15.10
2017-10-10T13:30:22.753Z,15.10
2017-10-10T13:32:52.778Z,15.10
2017-10-10T13:35:23.821Z,15.10
2017-10-10T13:37:53.821Z,15.10
2017-10-10T13:40:24.470Z,15.00
2017-10-10T13:42:55.168Z,15.00
2017-10-10T13:45:25.511Z,15.00
2017-10-10T13:47:55.786Z,14.90
2017-10-10T13:50:26.013Z,14.90
2017-10-10T13:52:56.230Z,14.90
2017-10-10T13:55:27.591Z,14.80
2017-10-10T13:57:58.228Z,14.80
2017-10-10T14:00:28.689Z,14.80
2017-10-10T14:02:59.547Z,14.80
2017-10-10T14:05:31.785Z,14.80
2017-10-10T14:08:03.196Z,14.80
2017-10-10T14:10:33.432Z,14.70
2017-10-10T14:13:03.547Z,14.80
2017-10-10T14:15:33.907Z,14.80
2017-10-10T14:18:04.435Z,14.80
2017-10-10T14:20:35.256Z,14.80
2017-10-10T14:23:06.313Z,14.80
2017-10-10T14:25:36.431Z,14.70
2017-10-10T14:28:06.904Z,14.70
2017-10-10T14:30:36.884Z,14.70
2017-10-10T14:33:07.322Z,14.70
2017-10-10T14:35:37.533Z,14.70
2017-10-10T14:38:07.652Z,14.70
2017-10-10T14:40:40.201Z,14.60
2017-10-10T14:43:10.229Z,14.60
2017-10-10T14:45:40.454Z,14.60
2017-10-10T14:48:10.958Z,14.60
2017-10-10T14:50:42.757Z,14.60
2017-10-10T14:53:12.843Z,14.60
2017-10-10T14:55:44.628Z,14.60
2017-10-10T14:58:14.939Z,14.60
2017-10-10T15:00:45.475Z,14.60
2017-10-10T15:03:16.212Z,14.60
2017-10-10T15:05:46.700Z,14.60
2017-10-10T15:08:18.512Z,14.60
2017-10-10T15:10:50.253Z,14.60
2017-10-10T15:13:20.164Z,14.60
2017-10-10T15:15:50.081Z,14.60
2017-10-10T15:18:20.223Z,14.60
2017-10-10T15:20:50.256Z,14.60
2017-10-10T15:23:20.492Z,14.60
2017-10-10T15:25:50.554Z,14.60
2017-10-10T15:28:21.119Z,14.60
2017-10-10T15:30:51.135Z,14.60
2017-10-10T15:33:21.249Z,14.60
2017-10-10T15:35:51.446Z,14.60
2017-10-10T15:38:21.563Z,14.60
2017-10-10T15:40:52.113Z,14.60
2017-10-10T15:43:22.111Z,14.60
2017-10-10T15:45:53.150Z,14.60
2017-10-10T15:48:24.152Z,14.50
2017-10-10T15:50:54.301Z,14.60
2017-10-10T15:53:24.926Z,14.60
2017-10-10T15:55:55.612Z,14.50
2017-10-10T15:58:25.636Z,14.50
2017-10-10T16:00:55.706Z,14.50
2017-10-10T16:03:26.239Z,14.50
2017-10-10T16:05:56.357Z,14.50
2017-10-10T16:08:26.881Z,14.50
2017-10-10T16:10:57.054Z,14.50
2017-10-10T16:13:27.566Z,14.50
2017-10-10T16:15:57.676Z,14.50
2017-10-10T16:18:28.359Z,14.50
2017-10-10T16:20:59.495Z,14.50
2017-10-10T16:23:29.439Z,14.50
2017-10-10T16:25:59.357Z,14.50
2017-10-10T16:28:30.300Z,14.50
2017-10-10T16:31:00.348Z,14.50
2017-10-10T16:33:30.399Z,14.50
2017-10-10T16:36:00.649Z,14.50
2017-10-10T16:38:31.067Z,14.40
2017-10-10T16:41:01.300Z,14.40
2017-10-10T16:43:31.466Z,14.40
2017-10-10T16:46:01.639Z,14.40
2017-10-10T16:48:32.681Z,14.40
2017-10-10T16:51:02.594Z,14.40
2017-10-10T16:53:33.530Z,14.40
2017-10-10T16:56:03.773Z,14.40
2017-10-10T16:58:33.886Z,14.40
2017-10-10T17:01:05.732Z,14.40
2017-10-10T17:03:37.082Z,14.40
2017-10-10T17:06:08.024Z,14.40
2017-10-10T17:08:38.035Z,14.40
2017-10-10T17:11:08.006Z,14.40
2017-10-10T17:13:38.342Z,14.40
2017-10-10T17:16:08.291Z,14.40
2017-10-10T17:18:38.410Z,14.40
2017-10-10T17:21:08.323Z,14.40
2017-10-10T17:23:39.881Z,14.40
2017-10-10T17:26:10.489Z,14.30
2017-10-10T17:28:40.528Z,14.40
2017-10-10T17:31:10.456Z,14.30
2017-10-10T17:33:40.580Z,14.30
2017-10-10T17:36:10.562Z,14.30
2017-10-10T17:38:40.977Z,14.30
2017-10-10T17:41:11.066Z,14.30
2017-10-10T17:43:41.120Z,14.30
2017-10-10T17:46:11.154Z,14.30
2017-10-10T17:48:43.120Z,14.20
2017-10-10T17:51:13.280Z,14.20
2017-10-10T17:53:43.516Z,14.30
2017-10-10T17:56:13.502Z,14.20
2017-10-10T17:58:44.101Z,14.20
2017-10-10T18:01:14.840Z,14.20
2017-10-10T18:03:46.746Z,14.20
2017-10-10T18:06:16.951Z,14.20
2017-10-10T18:08:47.316Z,14.20
2017-10-10T18:11:17.636Z,14.10
2017-10-10T18:13:47.931Z,14.10
2017-10-10T18:16:17.834Z,14.10
2017-10-10T18:18:47.823Z,14.10
2017-10-10T18:21:19.376Z,14.10
2017-10-10T18:23:50.110Z,14.10
2017-10-10T18:26:20.799Z,14.10
2017-10-10T18:28:50.969Z,14.10
2017-10-10T18:31:21.500Z,14.10
2017-10-10T18:33:51.458Z,14.00
2017-10-10T18:36:21.580Z,14.00
2017-10-10T18:38:52.438Z,14.10
2017-10-10T18:41:22.562Z,14.00
2017-10-10T18:43:54.627Z,14.00
2017-10-10T18:46:24.956Z,14.00
2017-10-10T18:48:55.191Z,14.10
2017-10-10T18:51:25.314Z,14.10
2017-10-10T18:53:56.243Z,14.00
2017-10-10T18:56:26.581Z,14.00
2017-10-10T18:58:56.677Z,14.00
2017-10-10T19:01:27.224Z,14.00
2017-10-10T19:03:57.771Z,14.00
2017-10-10T19:06:27.810Z,14.00
2017-10-10T19:08:57.990Z,14.00
2017-10-10T19:11:27.942Z,14.00
2017-10-10T19:13:58.181Z,14.00
2017-10-10T19:16:28.418Z,14.00
2017-10-10T19:18:58.260Z,14.00
2017-10-10T19:21:28.607Z,13.90
2017-10-10T19:23:58.659Z,13.90
2017-10-10T19:26:28.576Z,13.90
2017-10-10T19:29:00.344Z,13.90
2017-10-10T19:31:30.405Z,13.90
2017-10-10T19:34:01.226Z,13.80
2017-10-10T19:36:32.611Z,13.80
2017-10-10T19:39:02.607Z,13.80
2017-10-10T19:41:33.428Z,13.80
2017-10-10T19:44:03.480Z,13.80
2017-10-10T19:46:33.879Z,13.80
2017-10-10T19:49:05.016Z,13.80
2017-10-10T19:51:34.951Z,13.80
2017-10-10T19:54:04.843Z,13.80
2017-10-10T19:56:36.397Z,13.70
2017-10-10T19:59:06.638Z,13.70
2017-10-10T20:01:36.838Z,13.80
2017-10-10T20:04:07.949Z,13.80
2017-10-10T20:06:38.760Z,13.70
2017-10-10T20:09:08.836Z,13.80
2017-10-10T20:11:38.752Z,13.70
2017-10-10T20:14:08.737Z,13.70
2017-10-10T20:16:40.840Z,13.70
2017-10-10T20:19:11.972Z,13.70
2017-10-10T20:21:42.709Z,13.70
2017-10-10T20:24:13.237Z,13.70
2017-10-10T20:26:43.358Z,13.70
2017-10-10T20:29:13.485Z,13.70
2017-10-10T20:31:43.372Z,13.70
2017-10-10T20:34:13.506Z,13.70
2017-10-10T20:36:43.832Z,13.70
2017-10-10T20:39:14.358Z,13.70
2017-10-10T20:41:45.708Z,13.70
2017-10-10T20:44:16.041Z,13.70
2017-10-10T20:46:46.359Z,13.70
2017-10-10T20:49:16.645Z,13.60
2017-10-10T20:51:46.715Z,13.70
2017-10-10T20:54:17.122Z,13.60
2017-10-10T20:56:47.250Z,13.60
2017-10-10T20:59:17.155Z,13.60
2017-10-10T21:01:47.479Z,13.60
2017-10-10T21:04:18.215Z,13.60
2017-10-10T21:06:49.300Z,13.60
2017-10-10T21:09:20.307Z,13.60
2017-10-10T21:11:50.428Z,13.60
2017-10-10T21:14:20.464Z,13.50
2017-10-10T21:16:50.662Z,13.50
2017-10-10T21:19:20.785Z,13.50
2017-10-10T21:21:51.253Z,13.50
2017-10-10T21:24:21.832Z,13.50
2017-10-10T21:26:52.255Z,13.50
2017-10-10T21:29:24.085Z,13.50
2017-10-10T21:31:53.945Z,13.50
2017-10-10T21:34:24.873Z,13.50
2017-10-10T21:36:55.904Z,13.50
2017-10-10T21:39:25.982Z,13.50
2017-10-10T21:41:56.348Z,13.50
2017-10-10T21:44:27.701Z,13.50
2017-10-10T21:46:58.061Z,13.50
2017-10-10T21:49:28.753Z,13.50
2017-10-10T21:51:58.908Z,13.50
2017-10-10T21:54:29.536Z,13.40
2017-10-10T21:56:59.528Z,13.40
2017-10-10T21:59:30.225Z,13.40
2017-10-10T22:02:00.170Z,13.40
2017-10-10T22:04:30.336Z,13.40
2017-10-10T22:07:00.410Z,13.40
2017-10-10T22:09:30.737Z,13.40
2017-10-10T22:12:02.486Z,13.40
2017-10-10T22:14:32.810Z,13.40
2017-10-10T22:17:02.861Z,13.40
2017-10-10T22:19:33.165Z,13.40
2017-10-10T22:22:03.790Z,13.40
2017-10-10T22:24:34.516Z,13.40
2017-10-10T22:27:04.430Z,13.40
2017-10-10T22:29:34.553Z,13.40
2017-10-10T22:32:04.469Z,13.40
2017-10-10T22:34:34.789Z,13.30
2017-10-10T22:37:04.693Z,13.30
2017-10-10T22:39:34.616Z,13.30
2017-10-10T22:42:05.555Z,13.30
2017-10-10T22:44:35.681Z,13.30
2017-10-10T22:47:05.998Z,13.30
2017-10-10T22:49:36.113Z,13.30
2017-10-10T22:52:06.231Z,13.30
2017-10-10T22:54:36.539Z,13.30
2017-10-10T22:57:06.680Z,13.30
2017-10-10T22:59:37.003Z,13.30
2017-10-10T23:02:07.248Z,13.30
2017-10-10T23:04:38.679Z,13.30
2017-10-10T23:07:09.766Z,13.30
2017-10-10T23:09:39.702Z,13.20
2017-10-10T23:12:10.397Z,13.20
2017-10-10T23:14:40.587Z,13.20
2017-10-10T23:17:11.112Z,13.20
2017-10-10T23:19:41.973Z,13.20
2017-10-10T23:22:12.785Z,13.20
2017-10-10T23:24:43.697Z,13.20
2017-10-10T23:27:13.802Z,13.20
2017-10-10T23:29:44.160Z,13.20
2017-10-10T23:32:14.351Z,13.20
2017-10-10T23:34:44.817Z,13.20
2017-10-10T23:37:14.734Z,13.20
2017-10-10T23:39:45.056Z,13.20
2017-10-10T23:42:15.960Z,13.20
2017-10-10T23:44:45.700Z,13.20
2017-10-10T23:47:15.822Z,13.20
2017-10-10T23:49:45.535Z,13.20
2017-10-10T23:52:16.674Z,13.20
2017-10-10T23:54:46.380Z,13.20
2017-10-10T23:57:16.298Z,13.20
2017-10-10T23:59:46.416Z,13.20
